Time;durP1;ratioP1;P1;durP2;ratioP2;P2;SDS_P1;SDS_P2;PMS_P1;PMS_P2;Temp;Humidity;BMP_temperature;BMP_pressure;BME280_temperature;BME280_humidity;BME280_pressure;Samples;Min_cycle;Max_cycle;Signal;HPM_P1;HPM_P2
2023/01/11 00:01:33;;;;;;;7.50;3.70;;;;;;;8.97;100.00;100560.47;4850365;29;20038;-91
2023/01/11 00:03:58;;;;;;;6.03;4.00;;;;;;;8.95;100.00;100552.56;4856618;29;20089;-91
2023/01/11 00:06:24;;;;;;;5.50;3.50;;;;;;;9.04;100.00;100560.47;4820119;29;20070;-90
2023/01/11 00:08:49;;;;;;;7.47;4.30;;;;;;;9.05;100.00;100562.13;4834186;29;20498;-91
2023/01/11 00:11:15;;;;;;;6.60;3.87;;;;;;;9.09;100.00;100566.09;4814261;29;20086;-90
2023/01/11 00:13:44;;;;;;;5.73;3.63;;;;;;;9.12;100.00;100552.13;4840950;29;20045;-90
2023/01/11 00:16:10;;;;;;;9.07;4.00;;;;;;;9.15;100.00;100562.53;4817512;29;20121;-91
2023/01/11 00:18:36;;;;;;;6.50;3.50;;;;;;;9.20;100.00;100545.69;4846388;29;20534;-92
2023/01/11 00:21:06;;;;;;;6.70;3.60;;;;;;;9.19;100.00;100554.84;4847519;29;20025;-90
2023/01/11 00:23:33;;;;;;;4.90;2.93;;;;;;;9.25;100.00;100546.72;4839879;29;20385;-92
2023/01/11 00:26:00;;;;;;;5.63;3.43;;;;;;;9.25;100.00;100524.28;4841877;29;20042;-91
2023/01/11 00:28:26;;;;;;;5.13;2.80;;;;;;;9.37;100.00;100538.81;4862452;29;20049;-90
2023/01/11 00:30:51;;;;;;;7.67;3.57;;;;;;;9.40;100.00;100542.97;4820593;29;20042;-91
2023/01/11 00:33:16;;;;;;;5.67;3.17;;;;;;;9.39;100.00;100535.88;4847316;29;20143;-90
2023/01/11 00:35:42;;;;;;;6.33;3.10;;;;;;;9.39;100.00;100525.06;4836740;29;20034;-91
2023/01/11 00:38:08;;;;;;;6.63;2.77;;;;;;;9.50;100.00;100537.09;4839988;29;20090;-91
2023/01/11 00:40:33;;;;;;;4.17;2.50;;;;;;;9.54;100.00;100555.41;4838256;29;20068;-91
2023/01/11 00:48:27;;;;;;;3.93;2.13;;;;;;;9.50;100.00;100521.69;4855543;29;21877;-89
2023/01/11 00:50:55;;;;;;;4.93;3.17;;;;;;;9.43;100.00;100526.31;4828407;29;20295;-90
2023/01/11 00:53:21;;;;;;;3.50;2.60;;;;;;;9.34;100.00;100539.22;4838961;29;20085;-91
2023/01/11 00:55:46;;;;;;;4.57;2.80;;;;;;;9.31;100.00;100511.78;4865711;29;20037;-90
2023/01/11 00:58:11;;;;;;;6.13;3.00;;;;;;;9.27;100.00;100527.59;4863466;29;20112;-91
2023/01/11 01:00:37;;;;;;;4.83;2.80;;;;;;;9.24;100.00;100523.44;4837179;29;20473;-91
2023/01/11 01:03:02;;;;;;;3.80;2.87;;;;;;;9.21;100.00;100517.63;4847738;29;20110;-90
2023/01/11 01:05:28;;;;;;;5.13;3.43;;;;;;;9.20;100.00;100511.38;4835372;29;20062;-90
2023/01/11 01:07:53;;;;;;;3.83;3.10;;;;;;;9.09;100.00;100514.72;4862433;29;20079;-91
2023/01/11 01:10:19;;;;;;;4.77;3.53;;;;;;;9.08;100.00;100492.28;4820978;29;20098;-90
2023/01/11 01:15:29;;;;;;;5.78;3.50;;;;;;;9.07;100.00;100495.19;4862177;29;20049;-91
2023/01/11 01:17:55;;;;;;;5.00;3.37;;;;;;;9.12;100.00;100523.25;4851540;29;20486;-90
2023/01/11 01:20:22;;;;;;;7.47;4.50;;;;;;;9.02;100.00;100520.13;4861810;29;20487;-90
2023/01/11 01:22:48;;;;;;;7.23;4.60;;;;;;;8.98;100.00;100518.91;4849232;29;20952;-90
2023/01/11 01:25:13;;;;;;;6.10;4.60;;;;;;;8.96;100.00;100507.44;4834110;29;20041;-91
2023/01/11 01:27:39;;;;;;;6.03;4.40;;;;;;;8.97;100.00;100519.13;4859800;29;20179;-90
2023/01/11 01:30:05;;;;;;;6.30;4.30;;;;;;;8.98;100.00;100520.78;4847221;29;20483;-91
2023/01/11 01:32:30;;;;;;;8.40;5.27;;;;;;;9.02;100.00;100532.84;4849626;29;20093;-92
2023/01/11 01:34:56;;;;;;;9.87;5.90;;;;;;;9.07;100.00;100527.59;4860512;29;20434;-90
2023/01/11 01:37:21;;;;;;;9.63;6.17;;;;;;;9.09;100.00;100533.66;4812696;29;20081;-92
2023/01/11 01:39:47;;;;;;;10.17;6.07;;;;;;;9.11;100.00;100527.00;4846726;29;20029;-92
2023/01/11 01:42:18;;;;;;;10.83;6.47;;;;;;;9.12;100.00;100525.97;4839214;29;20058;-93
2023/01/11 01:44:52;;;;;;;8.30;5.20;;;;;;;9.12;100.00;100531.38;4832798;29;20022;-84
2023/01/11 01:47:41;;;;;;;9.17;5.47;;;;;;;9.13;100.00;100524.09;4857248;29;20041;-84
2023/01/11 01:50:13;;;;;;;11.10;6.33;;;;;;;9.15;100.00;100530.09;4837373;29;20049;-84
2023/01/11 01:52:41;;;;;;;8.53;5.30;;;;;;;9.18;100.00;100516.19;4858319;29;20082;-83
2023/01/11 01:55:11;;;;;;;8.50;5.17;;;;;;;9.24;100.00;100522.59;4857309;29;20033;-83
2023/01/11 01:57:40;;;;;;;7.97;5.10;;;;;;;9.33;100.00;100515.09;4861345;29;22000;-83
2023/01/11 02:00:07;;;;;;;7.47;5.70;;;;;;;9.32;100.00;100508.84;4840408;29;20034;-84
2023/01/11 02:02:35;;;;;;;7.83;4.80;;;;;;;9.36;100.00;100520.09;4833995;29;20033;-84
2023/01/11 02:05:02;;;;;;;9.13;6.03;;;;;;;9.37;100.00;100517.19;4842996;29;20036;-84
2023/01/11 02:07:35;;;;;;;9.43;5.97;;;;;;;9.42;100.00;100525.50;4844064;29;20053;-84
2023/01/11 02:10:07;;;;;;;9.23;5.80;;;;;;;9.46;100.00;100521.31;4840327;29;20410;-84
2023/01/11 02:12:57;;;;;;;10.60;6.10;;;;;;;9.46;100.00;100517.75;4857225;29;20041;-84
2023/01/11 02:15:23;;;;;;;7.13;4.77;;;;;;;9.50;100.00;100510.88;4858688;29;20534;-84
2023/01/11 02:17:48;;;;;;;7.23;5.37;;;;;;;9.52;100.00;100498.00;4821589;29;20113;-84
2023/01/11 02:20:26;;;;;;;7.63;5.83;;;;;;;9.53;100.00;100494.22;4840726;29;20033;-84
2023/01/11 02:23:17;;;;;;;7.07;5.37;;;;;;;9.61;100.00;100509.41;4859465;29;20025;-84
2023/01/11 02:26:04;;;;;;;10.30;6.33;;;;;;;9.61;100.00;100518.34;4860514;29;20037;-84
2023/01/11 02:28:50;;;;;;;7.50;5.40;;;;;;;9.63;100.00;100515.44;4861777;29;20026;-84
2023/01/11 02:31:33;;;;;;;10.90;6.20;;;;;;;9.69;100.00;100519.16;4846588;29;20037;-84
2023/01/11 02:34:21;;;;;;;8.23;5.43;;;;;;;9.69;100.00;100519.16;4859170;29;20034;-84
2023/01/11 02:36:57;;;;;;;5.83;4.40;;;;;;;9.77;100.00;100505.38;4843762;29;20064;-84
2023/01/11 02:40:02;;;;;;;7.40;4.67;;;;;;;9.79;100.00;100512.25;4832735;29;20029;-92
2023/01/11 02:45:32;;;;;;;9.80;5.50;;;;;;;9.77;100.00;100505.38;4862486;29;20100;-91
2023/01/11 02:48:03;;;;;;;8.03;4.57;;;;;;;9.79;100.00;100498.72;4849551;29;20386;-92
2023/01/11 02:51:01;;;;;;;7.27;4.60;;;;;;;9.82;100.00;100504.72;4851978;29;20033;-93
2023/01/11 02:53:35;;;;;;;7.50;5.13;;;;;;;9.78;100.00;100502.47;4822089;29;20045;-84
2023/01/11 02:56:06;;;;;;;7.82;4.95;;;;;;;9.86;100.00;100506.81;4842201;29;20524;-84
2023/01/11 02:58:35;;;;;;;6.17;4.20;;;;;;;9.90;100.00;100499.06;4855950;29;20029;-91
2023/01/11 03:01:01;;;;;;;10.23;4.83;;;;;;;9.86;100.00;100503.25;4830468;29;20033;-93
2023/01/11 03:03:29;;;;;;;6.30;4.37;;;;;;;9.88;100.00;100503.88;4840958;29;20029;-93
2023/01/11 03:06:10;;;;;;;8.53;4.60;;;;;;;9.97;100.00;100506.13;4817686;29;20037;-92
2023/01/11 03:08:43;;;;;;;6.97;4.40;;;;;;;9.95;100.00;100510.94;4862820;29;20033;-91
2023/01/11 03:14:26;;;;;;;5.05;3.35;;;;;;;9.99;100.00;100507.78;4860337;29;20523;-84
2023/01/11 03:16:59;;;;;;;4.20;3.40;;;;;;;10.01;100.00;100495.69;4858484;29;20049;-84
2023/01/11 03:19:42;;;;;;;6.55;3.75;;;;;;;9.99;100.00;100503.19;4844284;29;20033;-84
2023/01/11 03:22:25;;;;;;;4.50;3.50;;;;;;;10.03;100.00;100492.78;4856651;29;20539;-84
2023/01/11 03:25:01;;;;;;;4.70;3.40;;;;;;;10.02;100.00;100485.69;4838377;29;20422;-84
2023/01/11 03:27:49;;;;;;;3.37;3.00;;;;;;;10.08;100.00;100503.78;4840766;29;20154;-84
2023/01/11 03:30:22;;;;;;;5.10;3.17;;;;;;;10.06;100.00;100492.31;4856703;29;20030;-85
2023/01/11 03:32:59;;;;;;;3.40;3.10;;;;;;;10.09;100.00;100498.16;4840029;29;20026;-84
2023/01/11 03:35:55;;;;;;;4.73;2.97;;;;;;;10.07;100.00;100478.56;4840145;29;21718;-84
2023/01/11 03:38:27;;;;;;;3.87;3.03;;;;;;;10.08;100.00;100490.25;4835858;29;20553;-84
2023/01/11 03:41:00;;;;;;;3.57;3.20;;;;;;;10.07;100.00;100489.41;4841516;29;20049;-85
2023/01/11 03:43:27;;;;;;;3.13;2.80;;;;;;;10.16;100.00;100494.56;4842864;29;20030;-84
2023/01/11 03:46:01;;;;;;;3.20;2.73;;;;;;;10.13;100.00;100487.69;4849334;29;20443;-85
2023/01/11 03:48:43;;;;;;;2.30;2.10;;;;;;;10.20;100.00;100491.22;4850469;29;20108;-91
2023/01/11 03:51:13;;;;;;;2.40;2.20;;;;;;;10.19;100.00;100497.66;4847804;29;20542;-92
2023/01/11 03:53:43;;;;;;;2.73;2.50;;;;;;;10.22;100.00;100491.81;4849313;29;20038;-93
2023/01/11 03:56:11;;;;;;;2.47;2.27;;;;;;;10.18;100.00;100501.41;4846736;29;20064;-92
2023/01/11 03:58:37;;;;;;;2.03;1.93;;;;;;;10.18;100.00;100496.00;4842598;29;20035;-93
2023/01/11 04:01:03;;;;;;;2.93;2.30;;;;;;;10.17;100.00;100498.94;4827084;29;20140;-85
2023/01/11 04:03:28;;;;;;;2.20;2.10;;;;;;;10.19;100.00;100502.25;4847527;29;20043;-84
2023/01/11 04:05:59;;;;;;;1.90;1.80;;;;;;;10.18;100.00;100506.81;4848920;29;20037;-94
2023/01/11 04:08:25;;;;;;;2.00;1.90;;;;;;;10.16;100.00;100510.78;4854505;29;20029;-93
2023/01/11 04:10:50;;;;;;;2.23;2.10;;;;;;;10.14;100.00;100492.06;4848703;29;20030;-92
2023/01/11 04:13:16;;;;;;;2.10;2.00;;;;;;;10.17;100.00;100507.88;4863847;29;20041;-93
2023/01/11 04:15:41;;;;;;;2.80;2.00;;;;;;;10.19;100.00;100502.25;4864732;29;20048;-91
2023/01/11 04:18:07;;;;;;;2.10;1.90;;;;;;;10.19;100.00;100508.50;4858634;29;20028;-93
2023/01/11 04:20:34;;;;;;;2.37;2.17;;;;;;;10.21;100.00;100517.22;4831775;29;20034;-85
2023/01/11 04:23:00;;;;;;;2.73;2.10;;;;;;;10.23;100.00;100522.44;4844451;29;20041;-93
2023/01/11 04:25:25;;;;;;;2.30;2.10;;;;;;;10.23;100.00;100525.16;4864124;29;20363;-93
2023/01/11 04:27:51;;;;;;;2.40;2.03;;;;;;;10.17;100.00;100520.59;4847373;29;20037;-94
2023/01/11 04:30:16;;;;;;;2.40;2.30;;;;;;;10.19;100.00;100513.09;4866290;29;20510;-93
2023/01/11 04:32:42;;;;;;;2.90;2.60;;;;;;;10.19;100.00;100523.91;4829982;29;20046;-93
2023/01/11 04:35:08;;;;;;;3.10;2.90;;;;;;;10.23;100.00;100515.13;4835912;29;20038;-94
2023/01/11 04:37:33;;;;;;;3.60;3.30;;;;;;;10.26;100.00;100517.41;4818846;29;20495;-94
2023/01/11 04:39:59;;;;;;;3.70;3.40;;;;;;;10.24;100.00;100516.81;4825738;29;20088;-85
2023/01/11 04:42:24;;;;;;;3.93;3.40;;;;;;;10.29;100.00;100513.44;4827510;29;20041;-85
2023/01/11 04:44:51;;;;;;;4.90;3.40;;;;;;;10.31;100.00;100523.00;4830376;29;20038;-85
2023/01/11 04:47:18;;;;;;;4.53;3.70;;;;;;;10.30;100.00;100512.38;4823197;29;20030;-85
2023/01/11 04:49:44;;;;;;;3.73;3.40;;;;;;;10.36;100.00;100529.66;4825136;29;20078;-85
2023/01/11 04:52:11;;;;;;;4.63;3.77;;;;;;;10.39;100.00;100540.06;4822788;29;20567;-85
2023/01/11 04:54:37;;;;;;;3.60;3.30;;;;;;;10.45;100.00;100534.59;4840002;29;20061;-85
2023/01/11 04:57:02;;;;;;;5.47;3.63;;;;;;;10.38;100.00;100527.59;4822980;29;20027;-85
2023/01/11 04:59:27;;;;;;;4.40;4.00;;;;;;;10.46;100.00;100546.28;4826753;29;20090;-85
2023/01/11 05:01:53;;;;;;;5.03;4.50;;;;;;;10.44;100.00;100537.53;4828699;29;20066;-85
2023/01/11 05:04:18;;;;;;;5.70;4.77;;;;;;;10.46;100.00;100544.38;4823147;29;20531;-85
2023/01/11 05:06:44;;;;;;;5.00;4.50;;;;;;;10.46;100.00;100536.25;4811801;29;20041;-92
2023/01/11 05:09:15;;;;;;;6.20;5.30;;;;;;;10.50;100.00;100546.66;4826714;29;20471;-93
2023/01/11 05:11:41;;;;;;;5.13;4.60;;;;;;;10.50;100.00;100544.78;4830773;29;20069;-93
2023/01/11 05:14:07;;;;;;;5.93;5.30;;;;;;;10.49;100.00;100545.84;4832203;29;20066;-92
2023/01/11 05:16:32;;;;;;;5.10;4.70;;;;;;;10.52;100.00;100547.28;4817208;29;20026;-92
2023/01/11 05:19:00;;;;;;;4.87;4.47;;;;;;;10.51;100.00;100540.19;4825173;29;20041;-85
2023/01/11 05:21:28;;;;;;;5.30;4.90;;;;;;;10.53;100.00;100543.53;4830892;29;20040;-93
2023/01/11 05:23:54;;;;;;;6.10;5.60;;;;;;;10.50;100.00;100550.22;4827854;29;20037;-93
2023/01/11 05:26:22;;;;;;;6.00;5.50;;;;;;;10.51;100.00;100559.97;4826076;29;20396;-92
2023/01/11 05:28:48;;;;;;;6.20;5.70;;;;;;;10.51;100.00;100565.41;4823590;29;20048;-85
2023/01/11 05:31:14;;;;;;;6.40;5.80;;;;;;;10.54;100.00;100564.13;4824297;29;20030;-91
2023/01/11 05:33:40;;;;;;;6.10;5.60;;;;;;;10.49;100.00;100562.09;4823421;29;20486;-92
2023/01/11 05:36:09;;;;;;;5.83;5.37;;;;;;;10.54;100.00;100570.41;4808203;29;20061;-86
2023/01/11 05:38:35;;;;;;;9.27;5.70;;;;;;;10.48;100.00;100565.84;4858005;29;20056;-86
2023/01/11 05:41:05;;;;;;;8.70;6.03;;;;;;;10.50;100.00;100574.59;4860078;29;20038;-85
2023/01/11 05:43:31;;;;;;;8.00;5.90;;;;;;;10.47;100.00;100575.00;4860582;29;20040;-85
2023/01/11 05:45:57;;;;;;;6.30;5.50;;;;;;;10.45;100.00;100571.69;4839387;29;20041;-85
2023/01/11 05:48:24;;;;;;;9.77;6.00;;;;;;;10.43;100.00;100574.63;4848280;29;20033;-85
2023/01/11 05:50:54;;;;;;;7.33;5.60;;;;;;;10.46;100.00;100574.19;4861311;29;20045;-92
2023/01/11 05:53:21;;;;;;;7.63;5.40;;;;;;;10.47;100.00;100575.00;4827044;29;20034;-93
2023/01/11 05:55:55;;;;;;;7.13;5.37;;;;;;;10.46;100.00;100562.53;4853576;29;20044;-92
2023/01/11 05:58:21;;;;;;;7.43;4.90;;;;;;;10.48;100.00;100587.50;4841159;29;20037;-92
2023/01/11 06:00:52;;;;;;;9.10;4.90;;;;;;;10.45;100.00;100583.34;4852289;29;20060;-92
2023/01/11 06:03:17;;;;;;;7.90;4.50;;;;;;;10.46;100.00;100581.50;4827175;29;20058;-86
2023/01/11 06:05:43;;;;;;;7.77;4.50;;;;;;;10.47;100.00;100577.72;4846738;29;20067;-86
2023/01/11 06:08:09;;;;;;;8.67;4.20;;;;;;;10.45;100.00;100577.13;4861494;29;20038;-87
2023/01/11 06:10:34;;;;;;;9.80;4.17;;;;;;;10.39;100.00;100586.94;4862205;29;20481;-86
2023/01/11 06:15:43;;;;;;;14.40;3.83;;;;;;;10.30;100.00;100589.03;4825651;29;20059;-86
2023/01/11 06:18:09;;;;;;;11.77;3.57;;;;;;;10.20;100.00;100596.81;4842568;29;20033;-92
2023/01/11 06:20:34;;;;;;;16.93;3.53;;;;;;;10.14;100.00;100592.25;4850880;29;20040;-92
2023/01/11 06:23:00;;;;;;;15.43;3.67;;;;;;;10.11;100.00;100604.31;4849700;29;20173;-93
2023/01/11 06:25:25;;;;;;;16.83;3.70;;;;;;;10.02;100.00;100608.31;4852195;29;20040;-93
2023/01/11 06:27:52;;;;;;;16.03;3.50;;;;;;;10.03;100.00;100620.81;4831318;29;20030;-92
2023/01/11 06:30:19;;;;;;;10.93;3.07;;;;;;;10.02;100.00;100621.84;4844005;29;20112;-93
2023/01/11 06:32:44;;;;;;;17.10;3.57;;;;;;;9.94;100.00;100625.63;4836505;29;20138;-91
2023/01/11 06:35:10;;;;;;;16.87;3.50;;;;;;;9.98;100.00;100631.44;4832010;29;20641;-92
2023/01/11 06:37:35;;;;;;;18.13;3.80;;;;;;;9.89;100.00;100633.56;4848149;29;20041;-93
2023/01/11 06:40:01;;;;;;;17.37;3.50;;;;;;;9.84;100.00;100614.41;4830717;29;20042;-92
2023/01/11 06:42:26;;;;;;;16.87;3.40;;;;;;;9.85;100.00;100634.22;4846535;29;20040;-91
2023/01/11 06:44:52;;;;;;;19.03;3.80;;;;;;;9.81;100.00;100647.31;4834225;29;20032;-91
2023/01/11 06:47:17;;;;;;;18.10;3.87;;;;;;;9.80;100.00;100648.34;4845619;29;20117;-90
2023/01/11 06:49:42;;;;;;;13.43;3.70;;;;;;;9.77;100.00;100646.91;4851336;29;20041;-91
2023/01/11 06:52:08;;;;;;;19.97;4.30;;;;;;;9.75;100.00;100653.56;4850024;29;20061;-93
2023/01/11 06:54:33;;;;;;;16.20;3.90;;;;;;;9.69;100.00;100649.00;4853503;29;20576;-86
2023/01/11 06:56:58;;;;;;;20.17;4.00;;;;;;;9.63;100.00;100656.09;4817531;29;20044;-85
2023/01/11 06:59:24;;;;;;;20.30;4.20;;;;;;;9.66;100.00;100690.03;4861709;29;20041;-86
2023/01/11 07:01:49;;;;;;;19.07;4.03;;;;;;;9.70;100.00;100702.09;4863002;29;20054;-86
2023/01/11 07:04:15;;;;;;;17.17;4.40;;;;;;;9.62;100.00;100693.13;4843586;29;20062;-85
2023/01/11 07:06:41;;;;;;;18.57;4.10;;;;;;;9.57;100.00;100689.38;4847866;29;20072;-86
2023/01/11 07:09:06;;;;;;;19.77;4.00;;;;;;;9.56;100.00;100682.31;4833124;29;20066;-86
2023/01/11 07:11:33;;;;;;;17.57;4.27;;;;;;;9.53;100.00;100688.97;4831767;29;20036;-86
2023/01/11 07:13:59;;;;;;;18.77;4.03;;;;;;;9.50;100.00;100667.75;4835045;29;20084;-85
2023/01/11 07:16:24;;;;;;;19.53;4.10;;;;;;;9.48;100.00;100672.56;4831845;29;20066;-85
2023/01/11 07:18:49;;;;;;;19.23;4.40;;;;;;;9.45;100.00;100690.03;4844076;29;20037;-92
2023/01/11 07:21:15;;;;;;;20.90;4.00;;;;;;;9.45;100.00;100694.56;4849548;29;20095;-92
2023/01/11 07:23:40;;;;;;;18.63;3.80;;;;;;;9.46;100.00;100705.22;4821439;29;20375;-92
2023/01/11 07:26:05;;;;;;;22.60;4.23;;;;;;;9.47;100.00;100714.16;4830079;29;20038;-92
2023/01/11 07:28:31;;;;;;;20.47;4.00;;;;;;;9.42;100.00;100701.25;4851172;29;20032;-92
2023/01/11 07:30:57;;;;;;;17.47;4.17;;;;;;;9.40;100.00;100707.91;4864782;29;20033;-92
2023/01/11 07:33:23;;;;;;;23.47;4.27;;;;;;;9.35;100.00;100719.34;4846854;29;20085;-91
2023/01/11 07:35:49;;;;;;;19.20;4.20;;;;;;;9.33;100.00;100728.69;4862637;29;20040;-92
2023/01/11 07:38:14;;;;;;;21.30;4.53;;;;;;;9.32;100.00;100732.44;4821389;29;20057;-91
2023/01/11 07:40:40;;;;;;;19.07;4.07;;;;;;;9.27;100.00;100728.50;4830025;29;20045;-92
2023/01/11 07:43:18;;;;;;;21.23;4.30;;;;;;;9.24;100.00;100722.66;4835402;29;20149;-91
2023/01/11 07:45:46;;;;;;;22.40;4.60;;;;;;;9.18;100.00;100737.84;4834330;29;20045;-92
2023/01/11 07:48:13;;;;;;;21.43;4.10;;;;;;;9.19;100.00;100742.19;4846401;29;20681;-92
2023/01/11 07:50:39;;;;;;;20.53;4.57;;;;;;;9.13;100.00;100741.13;4823148;29;20048;-91
2023/01/11 07:53:07;;;;;;;20.23;4.63;;;;;;;9.14;100.00;100750.09;4851429;29;20048;-91
2023/01/11 07:55:32;;;;;;;21.13;4.13;;;;;;;9.07;100.00;100755.47;4843217;29;20121;-91
2023/01/11 07:57:58;;;;;;;19.23;4.47;;;;;;;9.10;100.00;100751.53;4830567;29;20089;-92
2023/01/11 08:00:24;;;;;;;18.33;4.50;;;;;;;9.02;100.00;100767.94;4845419;29;20451;-93
2023/01/11 08:02:53;;;;;;;22.50;4.63;;;;;;;8.97;100.00;100778.53;4838498;29;20030;-92
2023/01/11 08:05:19;;;;;;;20.87;4.77;;;;;;;8.97;100.00;100773.94;4837329;29;20045;-92
2023/01/11 08:07:45;;;;;;;21.87;4.63;;;;;;;8.98;100.00;100786.44;4848266;29;20037;-92
2023/01/11 08:10:10;;;;;;;19.17;3.93;;;;;;;8.98;100.00;100772.91;4832447;29;20048;-91
2023/01/11 08:15:29;;;;;;;21.17;4.07;;;;;;;8.94;100.00;100796.78;4861915;29;20072;-92
2023/01/11 08:17:55;;;;;;;20.80;4.47;;;;;;;8.90;100.00;100798.25;4832194;29;20505;-93
2023/01/11 08:20:20;;;;;;;19.53;4.17;;;;;;;8.89;100.00;100799.28;4829935;29;20030;-92
2023/01/11 08:22:47;;;;;;;16.73;3.67;;;;;;;8.86;100.00;100804.25;4834445;29;20033;-91
2023/01/11 08:25:12;;;;;;;22.97;4.63;;;;;;;8.82;100.00;100816.50;4829704;29;20516;-92
2023/01/11 08:27:37;;;;;;;21.20;4.80;;;;;;;8.76;100.00;100826.25;4844729;29;20105;-91
2023/01/11 08:30:03;;;;;;;22.97;4.50;;;;;;;8.70;100.00;100833.25;4846628;29;20453;-92
2023/01/11 08:32:29;;;;;;;16.13;4.00;;;;;;;8.71;100.00;100843.03;4844594;29;20021;-92
2023/01/11 08:34:54;;;;;;;18.33;4.10;;;;;;;8.63;100.00;100851.31;4817598;29;20057;-91
2023/01/11 08:37:19;;;;;;;19.90;4.33;;;;;;;8.59;100.00;100869.78;4818993;29;20133;-92
2023/01/11 08:39:45;;;;;;;20.83;4.67;;;;;;;8.59;100.00;100867.09;4831644;29;20644;-91
2023/01/11 08:42:10;;;;;;;23.47;4.13;;;;;;;8.55;100.00;100871.19;4809614;29;20090;-91
2023/01/11 08:44:35;;;;;;;18.50;3.73;;;;;;;8.56;100.00;100872.06;4827543;29;20026;-92
2023/01/11 08:47:01;;;;;;;17.20;4.20;;;;;;;8.58;100.00;100872.66;4826079;29;20039;-92
2023/01/11 08:49:29;;;;;;;20.43;4.70;;;;;;;8.55;100.00;100876.59;4803759;29;20517;-92
2023/01/11 08:51:54;;;;;;;19.97;4.60;;;;;;;8.48;100.00;100870.31;4797426;29;20097;-92
2023/01/11 08:54:20;;;;;;;20.27;4.63;;;;;;;8.48;100.00;100880.31;4827580;29;20062;-92
2023/01/11 08:56:46;;;;;;;20.67;4.30;;;;;;;8.47;100.00;100876.75;4826813;29;20045;-92
2023/01/11 08:59:12;;;;;;;19.23;4.13;;;;;;;8.39;100.00;100876.88;4824017;29;20445;-92
2023/01/11 09:01:37;;;;;;;21.03;4.10;;;;;;;8.37;100.00;100873.56;4826679;29;20026;-91
2023/01/11 09:04:03;;;;;;;18.33;4.30;;;;;;;8.34;100.00;100884.75;4799767;29;20054;-92
2023/01/11 09:06:28;;;;;;;25.27;4.63;;;;;;;8.41;100.00;100888.31;4796405;29;20035;-92
2023/01/11 09:08:54;;;;;;;18.30;4.07;;;;;;;8.37;100.00;100890.56;4812653;29;20034;-93
2023/01/11 09:14:03;;;;;;;22.52;4.60;;;;;;;8.33;100.00;100878.50;4811157;29;20050;-92
2023/01/11 09:16:28;;;;;;;22.23;4.47;;;;;;;8.35;100.00;100881.84;4810857;29;20033;-92
2023/01/11 09:18:54;;;;;;;21.50;4.50;;;;;;;8.30;100.00;100880.78;4808392;29;20051;-91
2023/01/11 09:21:20;;;;;;;23.40;5.53;;;;;;;8.25;100.00;100893.00;4830829;29;20034;-92
2023/01/11 09:23:45;;;;;;;20.73;4.53;;;;;;;8.23;100.00;100902.31;4800225;29;20073;-93
2023/01/11 09:26:11;;;;;;;18.90;3.77;;;;;;;8.22;100.00;100903.34;4802615;29;20554;-92
2023/01/11 09:28:37;;;;;;;19.63;4.07;;;;;;;8.14;100.00;100898.06;4804189;29;20038;-93
2023/01/11 09:31:02;;;;;;;21.90;3.87;;;;;;;8.15;100.00;100913.25;4792409;29;20057;-92
2023/01/11 09:33:28;;;;;;;20.67;4.20;;;;;;;8.15;100.00;100914.06;4828026;29;20046;-85
2023/01/11 09:35:56;;;;;;;21.43;4.53;;;;;;;8.11;100.00;100926.28;4825449;29;20142;-85
2023/01/11 09:38:25;;;;;;;20.47;4.43;;;;;;;8.14;100.00;100922.38;4852304;29;20446;-85
2023/01/11 09:41:04;;;;;;;21.57;4.30;;;;;;;8.16;100.00;100923.84;4859861;29;20125;-86
2023/01/11 09:43:30;;;;;;;20.63;4.57;;;;;;;8.21;100.00;100932.16;4859135;29;20379;-86
2023/01/11 09:46:03;;;;;;;19.20;4.73;;;;;;;8.33;100.00;100939.75;4805894;29;20070;-86
2023/01/11 09:48:58;;;;;;;20.00;3.90;;;;;;;8.56;100.00;100931.47;4870413;29;20025;-85
2023/01/11 09:51:32;;;;;;;21.83;4.05;;;;;;;8.75;100.00;100935.34;4842882;29;20049;-85
2023/01/11 09:54:00;;;;;;;19.88;4.95;;;;;;;8.88;100.00;100938.13;4865484;29;20097;-86
2023/01/11 09:56:32;;;;;;;18.53;4.17;;;;;;;8.80;100.00;100951.78;4846198;29;20128;-86
2023/01/11 09:59:25;;;;;;;17.90;4.33;;;;;;;8.81;100.00;100949.91;4862372;29;20040;-92
2023/01/11 10:02:22;;;;;;;20.03;4.27;;;;;;;8.77;100.00;100949.47;4868461;29;20474;-91
2023/01/11 10:05:08;;;;;;;20.00;4.20;;;;;;;8.94;100.00;100953.53;4844672;29;20048;-92
2023/01/11 10:07:58;;;;;;;18.60;4.20;;;;;;;9.22;100.00;100946.41;4868803;29;20085;-91
2023/01/11 10:10:26;;;;;;;18.23;4.07;;;;;;;9.47;100.00;100957.56;4834670;29;21036;-91
2023/01/11 10:13:13;;;;;;;18.37;3.90;;;;;;;9.52;100.00;100955.09;4862540;29;20097;-94
2023/01/11 10:16:07;;;;;;;14.90;3.77;;;;;;;9.94;100.00;100955.84;4855076;29;20509;-92
2023/01/11 10:18:55;;;;;;;19.40;4.37;;;;;;;10.20;100.00;100953.38;4834541;29;20671;-93
2023/01/11 10:21:39;;;;;;;14.03;3.47;;;;;;;10.28;100.00;100961.28;4834314;29;20033;-92
2023/01/11 10:24:26;;;;;;;17.13;4.22;;;;;;;10.15;100.00;100954.00;4849757;29;20029;-93
2023/01/11 10:26:56;;;;;;;18.23;3.90;;;;;;;10.45;100.00;100946.31;4848667;29;20037;-92
2023/01/11 10:29:39;;;;;;;19.30;4.37;;;;;;;10.45;100.00;100954.44;4863305;29;20459;-91
2023/01/11 10:32:48;;;;;;;19.77;4.40;;;;;;;10.53;100.00;100948.00;4848371;29;20037;-93
2023/01/11 10:35:32;;;;;;;19.27;4.00;;;;;;;10.77;100.00;100948.38;4868462;29;20029;-93
2023/01/11 10:38:22;;;;;;;15.93;3.47;;;;;;;10.75;100.00;100956.72;4871398;29;20052;-94
2023/01/11 10:41:05;;;;;;;18.03;3.63;;;;;;;10.82;100.00;100951.31;4849818;29;20025;-94
2023/01/11 10:43:36;;;;;;;17.67;3.60;;;;;;;10.83;99.78;100958.41;4858790;29;20407;-93
2023/01/11 10:46:11;;;;;;;16.20;3.67;;;;;;;10.87;100.00;100964.25;4845227;29;20112;-93
2023/01/11 10:48:42;;;;;;;18.87;3.90;;;;;;;10.95;97.91;100950.47;4839029;29;20030;-93
2023/01/11 10:51:29;;;;;;;16.63;4.10;;;;;;;11.06;98.30;100962.53;4838798;29;20041;-93
2023/01/11 10:54:15;;;;;;;17.70;3.83;;;;;;;11.23;96.70;100971.88;4844167;29;20033;-92
2023/01/11 10:56:56;;;;;;;15.67;3.90;;;;;;;11.29;95.70;100957.44;4871249;29;20038;-93
2023/01/11 10:59:48;;;;;;;17.10;3.90;;;;;;;11.65;96.48;100969.63;4852180;29;20363;-93
2023/01/11 11:02:36;;;;;;;17.23;4.00;;;;;;;11.51;94.84;100964.47;4826354;29;20041;-93
2023/01/11 11:05:26;;;;;;;15.73;4.13;;;;;;;11.49;93.69;100965.53;4827780;29;20034;-93
2023/01/11 11:08:00;;;;;;;17.33;3.90;;;;;;;11.32;92.59;100959.72;4857832;29;20111;-92
2023/01/11 11:10:52;;;;;;;17.97;4.20;;;;;;;11.46;94.14;100968.66;4835673;29;20025;-92
2023/01/11 11:13:36;;;;;;;17.60;4.00;;;;;;;11.64;91.89;100959.81;4836920;29;20034;-93
2023/01/11 11:16:09;;;;;;;16.63;4.30;;;;;;;11.51;90.63;100973.44;4851604;29;20040;-93
2023/01/11 11:18:34;;;;;;;16.70;3.63;;;;;;;11.66;90.44;100970.44;4847645;29;20162;-93
2023/01/11 11:21:05;;;;;;;18.67;3.70;;;;;;;11.81;90.78;100970.16;4853962;29;20029;-92
2023/01/11 11:23:32;;;;;;;16.23;3.90;;;;;;;11.85;86.75;100971.41;4861241;29;20028;-93
2023/01/11 11:26:02;;;;;;;17.67;4.00;;;;;;;11.57;88.99;100975.31;4855703;29;20029;-94
2023/01/11 11:28:32;;;;;;;18.73;4.23;;;;;;;11.40;88.50;100969.50;4851234;29;20040;-93
2023/01/11 11:31:01;;;;;;;16.67;3.90;;;;;;;11.24;89.00;100964.56;4847684;29;20156;-92
2023/01/11 11:33:37;;;;;;;15.60;3.57;;;;;;;11.37;88.67;100975.38;4876739;29;20025;-92
2023/01/11 11:36:08;;;;;;;16.13;3.83;;;;;;;11.50;88.21;100974.47;4825496;29;20022;-93
2023/01/11 11:38:41;;;;;;;18.10;4.03;;;;;;;11.36;88.19;100975.59;4846971;29;20049;-93
2023/01/11 11:41:10;;;;;;;17.30;3.70;;;;;;;11.40;88.18;100982.25;4835298;29;20067;-93
2023/01/11 11:43:38;;;;;;;21.07;3.83;;;;;;;11.14;87.47;100982.09;4861564;29;20029;-93
2023/01/11 11:46:18;;;;;;;19.80;4.30;;;;;;;11.08;88.85;100987.53;4855491;29;20036;-93
2023/01/11 11:48:44;;;;;;;20.17;3.77;;;;;;;11.11;87.72;100977.13;4860115;29;20116;-92
2023/01/11 11:51:21;;;;;;;16.87;3.47;;;;;;;11.27;88.95;100992.09;4858173;29;20039;-93
2023/01/11 11:53:54;;;;;;;17.07;4.00;;;;;;;11.09;87.79;100990.03;4844907;29;20037;-92
2023/01/11 11:56:42;;;;;;;17.13;3.70;;;;;;;11.17;88.37;100988.16;4845345;29;20112;-92